sensor_id;sensor_type;location;lat;lon;timestamp;temperature;humidity
32366;DHT22;18837;46.832;16.838;2023-08-12T00:01:07;20.20;87.30
32366;DHT22;18837;46.832;16.838;2023-08-12T00:03:33;20.20;87.40
32366;DHT22;18837;46.832;16.838;2023-08-12T00:05:59;20.20;87.50
32366;DHT22;18837;46.832;16.838;2023-08-12T00:08:27;20.20;87.80
32366;DHT22;18837;46.832;16.838;2023-08-12T00:17:18;20.20;87.50
32366;DHT22;18837;46.832;16.838;2023-08-12T00:19:46;20.20;88.00
32366;DHT22;18837;46.832;16.838;2023-08-12T00:22:11;20.10;87.70
32366;DHT22;18837;46.832;16.838;2023-08-12T00:24:38;20.10;87.50
32366;DHT22;18837;46.832;16.838;2023-08-12T00:27:04;20.10;87.50
32366;DHT22;18837;46.832;16.838;2023-08-12T00:29:30;20.10;87.80
32366;DHT22;18837;46.832;16.838;2023-08-12T00:32:09;20.10;87.70
32366;DHT22;18837;46.832;16.838;2023-08-12T00:34:35;20.10;88.10
32366;DHT22;18837;46.832;16.838;2023-08-12T00:37:00;20.10;88.20
32366;DHT22;18837;46.832;16.838;2023-08-12T00:39:26;20.10;87.90
32366;DHT22;18837;46.832;16.838;2023-08-12T00:41:52;20.00;88.60
32366;DHT22;18837;46.832;16.838;2023-08-12T00:44:18;20.00;87.70
32366;DHT22;18837;46.832;16.838;2023-08-12T00:49:49;20.00;88.00
32366;DHT22;18837;46.832;16.838;2023-08-12T00:52:16;20.00;88.20
32366;DHT22;18837;46.832;16.838;2023-08-12T00:54:43;20.00;88.90
32366;DHT22;18837;46.832;16.838;2023-08-12T00:57:09;20.00;88.10
32366;DHT22;18837;46.832;16.838;2023-08-12T00:59:36;20.00;88.10
32366;DHT22;18837;46.832;16.838;2023-08-12T01:02:06;20.00;87.90
32366;DHT22;18837;46.832;16.838;2023-08-12T01:04:50;19.90;87.90
32366;DHT22;18837;46.832;16.838;2023-08-12T01:07:16;19.90;87.80
32366;DHT22;18837;46.832;16.838;2023-08-12T01:09:42;19.90;87.60
32366;DHT22;18837;46.832;16.838;2023-08-12T01:12:33;19.90;88.20
32366;DHT22;18837;46.832;16.838;2023-08-12T01:15:08;19.90;88.20
32366;DHT22;18837;46.832;16.838;2023-08-12T01:17:37;19.90;88.20
32366;DHT22;18837;46.832;16.838;2023-08-12T01:20:34;19.90;88.00
32366;DHT22;18837;46.832;16.838;2023-08-12T01:26:09;19.90;88.40
32366;DHT22;18837;46.832;16.838;2023-08-12T01:28:35;19.80;88.00
32366;DHT22;18837;46.832;16.838;2023-08-12T01:31:08;19.80;88.30
32366;DHT22;18837;46.832;16.838;2023-08-12T01:33:42;19.80;88.10
32366;DHT22;18837;46.832;16.838;2023-08-12T01:36:16;19.80;88.30
32366;DHT22;18837;46.832;16.838;2023-08-12T01:39:07;19.80;89.00
32366;DHT22;18837;46.832;16.838;2023-08-12T01:41:35;19.70;88.40
32366;DHT22;18837;46.832;16.838;2023-08-12T01:44:03;19.70;88.20
32366;DHT22;18837;46.832;16.838;2023-08-12T01:46:29;19.70;88.20
32366;DHT22;18837;46.832;16.838;2023-08-12T01:48:54;19.70;88.30
32366;DHT22;18837;46.832;16.838;2023-08-12T01:51:20;19.70;88.00
32366;DHT22;18837;46.832;16.838;2023-08-12T01:54:05;19.70;88.10
32366;DHT22;18837;46.832;16.838;2023-08-12T01:56:55;19.70;88.50
32366;DHT22;18837;46.832;16.838;2023-08-12T01:59:39;19.70;88.30
32366;DHT22;18837;46.832;16.838;2023-08-12T02:02:05;19.70;88.10
32366;DHT22;18837;46.832;16.838;2023-08-12T02:04:32;19.70;88.10
32366;DHT22;18837;46.832;16.838;2023-08-12T02:06:58;19.60;88.50
32366;DHT22;18837;46.832;16.838;2023-08-12T02:09:25;19.70;88.30
32366;DHT22;18837;46.832;16.838;2023-08-12T02:11:51;19.60;88.20
32366;DHT22;18837;46.832;16.838;2023-08-12T02:14:26;19.60;88.70
32366;DHT22;18837;46.832;16.838;2023-08-12T02:16:52;19.60;88.80
32366;DHT22;18837;46.832;16.838;2023-08-12T02:19:18;19.60;88.40
32366;DHT22;18837;46.832;16.838;2023-08-12T02:21:43;19.60;88.40
32366;DHT22;18837;46.832;16.838;2023-08-12T02:24:09;19.60;88.50
32366;DHT22;18837;46.832;16.838;2023-08-12T02:26:37;19.50;88.40
32366;DHT22;18837;46.832;16.838;2023-08-12T02:29:25;19.60;88.50
32366;DHT22;18837;46.832;16.838;2023-08-12T02:32:15;19.50;88.40
32366;DHT22;18837;46.832;16.838;2023-08-12T02:34:58;19.50;88.50
32366;DHT22;18837;46.832;16.838;2023-08-12T02:37:24;19.50;88.20
32366;DHT22;18837;46.832;16.838;2023-08-12T02:40:04;19.50;88.50
32366;DHT22;18837;46.832;16.838;2023-08-12T02:42:30;19.50;88.80
32366;DHT22;18837;46.832;16.838;2023-08-12T02:51:30;19.40;88.40
32366;DHT22;18837;46.832;16.838;2023-08-12T02:54:09;19.40;88.50
32366;DHT22;18837;46.832;16.838;2023-08-12T02:56:41;19.40;88.70
32366;DHT22;18837;46.832;16.838;2023-08-12T03:59:59;19.10;88.70
32366;DHT22;18837;46.832;16.838;2023-08-12T04:02:25;19.10;88.70
32366;DHT22;18837;46.832;16.838;2023-08-12T04:04:50;19.10;88.90
32366;DHT22;18837;46.832;16.838;2023-08-12T04:07:16;19.20;88.90
32366;DHT22;18837;46.832;16.838;2023-08-12T06:09:56;18.90;89.70
32366;DHT22;18837;46.832;16.838;2023-08-12T06:14:52;18.90;90.00
32366;DHT22;18837;46.832;16.838;2023-08-12T06:17:21;18.90;89.90
32366;DHT22;18837;46.832;16.838;2023-08-12T06:20:05;18.90;89.80
32366;DHT22;18837;46.832;16.838;2023-08-12T06:27:53;18.90;88.90
32366;DHT22;18837;46.832;16.838;2023-08-12T06:30:28;18.90;90.10
32366;DHT22;18837;46.832;16.838;2023-08-12T06:32:54;18.90;89.70
32366;DHT22;18837;46.832;16.838;2023-08-12T06:35:20;18.90;90.00
32366;DHT22;18837;46.832;16.838;2023-08-12T10:26:33;22.80;92.90
32366;DHT22;18837;46.832;16.838;2023-08-12T10:29:23;22.90;91.00
32366;DHT22;18837;46.832;16.838;2023-08-12T10:32:18;23.00;88.10
32366;DHT22;18837;46.832;16.838;2023-08-12T10:34:59;23.10;86.10
32366;DHT22;18837;46.832;16.838;2023-08-12T10:37:25;23.10;86.00
32366;DHT22;18837;46.832;16.838;2023-08-12T10:39:55;23.10;90.10
32366;DHT22;18837;46.832;16.838;2023-08-12T10:42:44;23.10;90.90
32366;DHT22;18837;46.832;16.838;2023-08-12T10:45:14;23.10;92.20
32366;DHT22;18837;46.832;16.838;2023-08-12T10:50:46;23.20;92.70
32366;DHT22;18837;46.832;16.838;2023-08-12T10:53:27;23.30;92.40
32366;DHT22;18837;46.832;16.838;2023-08-12T10:56:02;23.30;92.20
32366;DHT22;18837;46.832;16.838;2023-08-12T11:00:58;23.40;92.30
32366;DHT22;18837;46.832;16.838;2023-08-12T11:04:18;23.40;92.70
32366;DHT22;18837;46.832;16.838;2023-08-12T11:09:52;23.60;92.90
32366;DHT22;18837;46.832;16.838;2023-08-12T11:12:28;23.60;92.80
32366;DHT22;18837;46.832;16.838;2023-08-12T11:14:54;23.70;92.90
32366;DHT22;18837;46.832;16.838;2023-08-12T11:17:32;23.70;92.20
32366;DHT22;18837;46.832;16.838;2023-08-12T11:19:59;23.70;88.60
32366;DHT22;18837;46.832;16.838;2023-08-12T11:22:35;23.80;84.70
32366;DHT22;18837;46.832;16.838;2023-08-12T11:25:09;23.80;87.00
32366;DHT22;18837;46.832;16.838;2023-08-12T11:30:05;23.90;89.10
32366;DHT22;18837;46.832;16.838;2023-08-12T11:32:31;23.90;89.20
32366;DHT22;18837;46.832;16.838;2023-08-12T11:34:59;23.90;89.60
32366;DHT22;18837;46.832;16.838;2023-08-12T11:37:54;23.90;90.20
32366;DHT22;18837;46.832;16.838;2023-08-12T11:41:02;23.90;91.50
32366;DHT22;18837;46.832;16.838;2023-08-12T11:43:38;24.00;91.10
32366;DHT22;18837;46.832;16.838;2023-08-12T11:46:03;24.00;91.50
32366;DHT22;18837;46.832;16.838;2023-08-12T11:48:29;24.10;91.30
32366;DHT22;18837;46.832;16.838;2023-08-12T11:50:55;24.10;91.20
32366;DHT22;18837;46.832;16.838;2023-08-12T11:53:21;24.10;91.80
32366;DHT22;18837;46.832;16.838;2023-08-12T11:55:48;24.20;92.10
32366;DHT22;18837;46.832;16.838;2023-08-12T11:58:18;24.20;91.40
32366;DHT22;18837;46.832;16.838;2023-08-12T12:00:48;24.30;91.80
32366;DHT22;18837;46.832;16.838;2023-08-12T12:03:16;24.30;91.10
32366;DHT22;18837;46.832;16.838;2023-08-12T12:05:46;24.30;91.50
32366;DHT22;18837;46.832;16.838;2023-08-12T12:08:13;24.30;91.30
32366;DHT22;18837;46.832;16.838;2023-08-12T12:10:39;24.40;91.20
32366;DHT22;18837;46.832;16.838;2023-08-12T12:13:30;24.40;91.80
32366;DHT22;18837;46.832;16.838;2023-08-12T12:16:15;24.50;91.60
32366;DHT22;18837;46.832;16.838;2023-08-12T12:18:41;24.50;91.50
32366;DHT22;18837;46.832;16.838;2023-08-12T12:21:07;24.50;91.70
32366;DHT22;18837;46.832;16.838;2023-08-12T12:23:33;24.50;91.50
32366;DHT22;18837;46.832;16.838;2023-08-12T12:26:03;24.60;91.10
32366;DHT22;18837;46.832;16.838;2023-08-12T13:28:05;25.30;84.90
32366;DHT22;18837;46.832;16.838;2023-08-12T13:30:31;25.30;86.00
32366;DHT22;18837;46.832;16.838;2023-08-12T13:32:57;25.30;86.60
32366;DHT22;18837;46.832;16.838;2023-08-12T13:35:23;25.30;86.50
32366;DHT22;18837;46.832;16.838;2023-08-12T13:37:58;25.30;85.80
32366;DHT22;18837;46.832;16.838;2023-08-12T13:40:36;25.30;85.60
32366;DHT22;18837;46.832;16.838;2023-08-12T13:43:02;25.30;84.50
32366;DHT22;18837;46.832;16.838;2023-08-12T13:45:28;25.30;85.80
32366;DHT22;18837;46.832;16.838;2023-08-12T13:47:54;25.40;85.80
32366;DHT22;18837;46.832;16.838;2023-08-12T13:50:20;25.40;84.40
32366;DHT22;18837;46.832;16.838;2023-08-12T13:52:46;25.40;84.80
32366;DHT22;18837;46.832;16.838;2023-08-12T13:55:22;25.40;84.10
32366;DHT22;18837;46.832;16.838;2023-08-12T13:57:47;25.50;83.90
32366;DHT22;18837;46.832;16.838;2023-08-12T14:00:13;25.50;83.50
32366;DHT22;18837;46.832;16.838;2023-08-12T14:02:40;25.50;83.10
32366;DHT22;18837;46.832;16.838;2023-08-12T14:05:07;25.50;82.80
32366;DHT22;18837;46.832;16.838;2023-08-12T14:07:33;25.60;83.50
32366;DHT22;18837;46.832;16.838;2023-08-12T14:09:59;25.60;83.90
32366;DHT22;18837;46.832;16.838;2023-08-12T14:12:37;25.60;83.60
32366;DHT22;18837;46.832;16.838;2023-08-12T14:15:15;25.60;83.90
32366;DHT22;18837;46.832;16.838;2023-08-12T14:17:41;25.70;84.90
32366;DHT22;18837;46.832;16.838;2023-08-12T14:20:07;25.70;83.30
32366;DHT22;18837;46.832;16.838;2023-08-12T14:22:34;25.70;83.20
32366;DHT22;18837;46.832;16.838;2023-08-12T14:25:02;25.80;83.10
32366;DHT22;18837;46.832;16.838;2023-08-12T14:27:29;25.80;81.90
32366;DHT22;18837;46.832;16.838;2023-08-12T14:30:00;25.80;81.70
32366;DHT22;18837;46.832;16.838;2023-08-12T14:32:26;25.80;81.80
32366;DHT22;18837;46.832;16.838;2023-08-12T14:34:52;25.80;82.50
32366;DHT22;18837;46.832;16.838;2023-08-12T14:37:18;25.80;83.60
32366;DHT22;18837;46.832;16.838;2023-08-12T14:39:43;25.80;84.20
32366;DHT22;18837;46.832;16.838;2023-08-12T14:42:09;25.80;84.10
32366;DHT22;18837;46.832;16.838;2023-08-12T14:44:36;25.90;84.20
32366;DHT22;18837;46.832;16.838;2023-08-12T14:47:13;25.90;83.80
32366;DHT22;18837;46.832;16.838;2023-08-12T14:49:51;25.90;83.40
32366;DHT22;18837;46.832;16.838;2023-08-12T14:52:19;25.90;83.60
32366;DHT22;18837;46.832;16.838;2023-08-12T14:54:46;25.90;83.60
32366;DHT22;18837;46.832;16.838;2023-08-12T14:57:12;26.00;82.80
32366;DHT22;18837;46.832;16.838;2023-08-12T14:59:38;26.00;83.50
32366;DHT22;18837;46.832;16.838;2023-08-12T15:02:04;26.00;83.60
32366;DHT22;18837;46.832;16.838;2023-08-12T15:04:43;26.00;83.60
32366;DHT22;18837;46.832;16.838;2023-08-12T15:07:08;25.90;83.30
32366;DHT22;18837;46.832;16.838;2023-08-12T15:09:34;26.10;82.90
32366;DHT22;18837;46.832;16.838;2023-08-12T15:12:00;26.00;82.40
32366;DHT22;18837;46.832;16.838;2023-08-12T15:14:26;26.00;82.30
32366;DHT22;18837;46.832;16.838;2023-08-12T15:16:51;26.10;82.10
32366;DHT22;18837;46.832;16.838;2023-08-12T15:19:17;26.10;82.40
32366;DHT22;18837;46.832;16.838;2023-08-12T15:22:05;26.10;82.10
32366;DHT22;18837;46.832;16.838;2023-08-12T15:24:50;26.10;81.30
32366;DHT22;18837;46.832;16.838;2023-08-12T15:27:18;26.00;80.10
32366;DHT22;18837;46.832;16.838;2023-08-12T15:29:44;26.00;80.10
32366;DHT22;18837;46.832;16.838;2023-08-12T15:32:13;26.00;80.30
32366;DHT22;18837;46.832;16.838;2023-08-12T15:34:39;26.00;80.30
32366;DHT22;18837;46.832;16.838;2023-08-12T15:37:05;26.00;80.10
32366;DHT22;18837;46.832;16.838;2023-08-12T15:39:37;25.90;79.90
32366;DHT22;18837;46.832;16.838;2023-08-12T15:42:03;25.90;79.70
32366;DHT22;18837;46.832;16.838;2023-08-12T15:44:29;25.90;79.80
32366;DHT22;18837;46.832;16.838;2023-08-12T15:46:55;25.80;80.00
32366;DHT22;18837;46.832;16.838;2023-08-12T15:49:21;25.80;79.90
32366;DHT22;18837;46.832;16.838;2023-08-12T15:51:47;25.80;79.70
32366;DHT22;18837;46.832;16.838;2023-08-12T15:54:40;25.70;79.90
32366;DHT22;18837;46.832;16.838;2023-08-12T16:00:15;25.60;81.30
32366;DHT22;18837;46.832;16.838;2023-08-12T16:02:41;25.60;80.60
32366;DHT22;18837;46.832;16.838;2023-08-12T16:05:07;25.60;81.10
32366;DHT22;18837;46.832;16.838;2023-08-12T16:07:33;25.60;81.40
32366;DHT22;18837;46.832;16.838;2023-08-12T16:09:59;25.50;81.70
32366;DHT22;18837;46.832;16.838;2023-08-12T16:12:25;25.50;81.70
32366;DHT22;18837;46.832;16.838;2023-08-12T16:15:00;25.50;82.00
32366;DHT22;18837;46.832;16.838;2023-08-12T16:17:26;25.50;81.90
32366;DHT22;18837;46.832;16.838;2023-08-12T16:19:52;25.40;81.70
32366;DHT22;18837;46.832;16.838;2023-08-12T16:22:18;25.40;81.80
32366;DHT22;18837;46.832;16.838;2023-08-12T16:24:44;25.30;81.50
32366;DHT22;18837;46.832;16.838;2023-08-12T16:27:09;25.30;81.80
32366;DHT22;18837;46.832;16.838;2023-08-12T16:33:37;25.30;82.20
32366;DHT22;18837;46.832;16.838;2023-08-12T16:36:03;25.20;82.10
32366;DHT22;18837;46.832;16.838;2023-08-12T16:38:29;25.20;82.10
32366;DHT22;18837;46.832;16.838;2023-08-12T16:40:55;25.20;82.00
32366;DHT22;18837;46.832;16.838;2023-08-12T16:43:21;25.10;81.90
32366;DHT22;18837;46.832;16.838;2023-08-12T16:45:46;25.10;81.90
32366;DHT22;18837;46.832;16.838;2023-08-12T16:48:19;25.10;82.20
32366;DHT22;18837;46.832;16.838;2023-08-12T16:50:44;25.00;82.20
32366;DHT22;18837;46.832;16.838;2023-08-12T16:53:10;25.00;82.10
32366;DHT22;18837;46.832;16.838;2023-08-12T16:55:36;25.00;82.00
32366;DHT22;18837;46.832;16.838;2023-08-12T16:58:02;24.90;82.20
32366;DHT22;18837;46.832;16.838;2023-08-12T17:00:28;24.90;82.30
32366;DHT22;18837;46.832;16.838;2023-08-12T17:06:41;24.80;82.60
32366;DHT22;18837;46.832;16.838;2023-08-12T17:09:22;24.80;82.30
32366;DHT22;18837;46.832;16.838;2023-08-12T17:11:48;24.70;81.80
32366;DHT22;18837;46.832;16.838;2023-08-12T17:14:14;24.70;81.90
32366;DHT22;18837;46.832;16.838;2023-08-12T17:16:40;24.70;81.90
32366;DHT22;18837;46.832;16.838;2023-08-12T17:19:06;24.60;81.90
32366;DHT22;18837;46.832;16.838;2023-08-12T17:21:32;24.60;82.10
32366;DHT22;18837;46.832;16.838;2023-08-12T17:23:59;24.50;82.20
32366;DHT22;18837;46.832;16.838;2023-08-12T17:26:25;24.50;81.90
32366;DHT22;18837;46.832;16.838;2023-08-12T17:28:51;24.50;82.10
32366;DHT22;18837;46.832;16.838;2023-08-12T17:31:17;24.50;81.90
32366;DHT22;18837;46.832;16.838;2023-08-12T17:33:43;24.50;82.30
32366;DHT22;18837;46.832;16.838;2023-08-12T17:36:10;24.40;82.00
32366;DHT22;18837;46.832;16.838;2023-08-12T17:38:57;24.40;82.10
32366;DHT22;18837;46.832;16.838;2023-08-12T17:41:23;24.40;82.20
32366;DHT22;18837;46.832;16.838;2023-08-12T17:43:49;24.30;81.80
32366;DHT22;18837;46.832;16.838;2023-08-12T17:46:16;24.30;81.90
32366;DHT22;18837;46.832;16.838;2023-08-12T17:48:42;24.30;82.10
32366;DHT22;18837;46.832;16.838;2023-08-12T17:51:09;24.30;82.30
32366;DHT22;18837;46.832;16.838;2023-08-12T18:00:10;24.10;82.30
32366;DHT22;18837;46.832;16.838;2023-08-12T18:02:38;24.10;82.40
32366;DHT22;18837;46.832;16.838;2023-08-12T18:05:05;24.10;82.30
32366;DHT22;18837;46.832;16.838;2023-08-12T18:07:31;24.10;82.60
32366;DHT22;18837;46.832;16.838;2023-08-12T18:09:58;24.00;82.30
32366;DHT22;18837;46.832;16.838;2023-08-12T18:12:48;24.00;82.20
32366;DHT22;18837;46.832;16.838;2023-08-12T18:15:14;24.00;82.40
32366;DHT22;18837;46.832;16.838;2023-08-12T18:17:39;24.00;82.20
32366;DHT22;18837;46.832;16.838;2023-08-12T18:20:06;23.90;82.10
32366;DHT22;18837;46.832;16.838;2023-08-12T18:22:32;23.90;82.20
32366;DHT22;18837;46.832;16.838;2023-08-12T18:24:58;23.90;82.30
32366;DHT22;18837;46.832;16.838;2023-08-12T18:27:23;23.80;83.00
32366;DHT22;18837;46.832;16.838;2023-08-12T18:30:02;23.80;82.10
32366;DHT22;18837;46.832;16.838;2023-08-12T18:32:41;23.80;82.50
32366;DHT22;18837;46.832;16.838;2023-08-12T18:35:07;23.80;82.40
32366;DHT22;18837;46.832;16.838;2023-08-12T18:37:35;23.70;82.40
32366;DHT22;18837;46.832;16.838;2023-08-12T18:40:01;23.70;82.10
32366;DHT22;18837;46.832;16.838;2023-08-12T18:42:27;23.70;82.50
32366;DHT22;18837;46.832;16.838;2023-08-12T18:44:53;23.70;82.80
32366;DHT22;18837;46.832;16.838;2023-08-12T18:47:19;23.60;82.80
32366;DHT22;18837;46.832;16.838;2023-08-12T18:49:45;23.60;82.90
32366;DHT22;18837;46.832;16.838;2023-08-12T18:52:12;23.60;82.90
32366;DHT22;18837;46.832;16.838;2023-08-12T18:54:38;23.60;83.20
32366;DHT22;18837;46.832;16.838;2023-08-12T18:57:05;23.50;82.90
32366;DHT22;18837;46.832;16.838;2023-08-12T18:59:30;23.50;82.90
32366;DHT22;18837;46.832;16.838;2023-08-12T19:01:56;23.50;83.20
32366;DHT22;18837;46.832;16.838;2023-08-12T19:04:41;23.50;83.50
32366;DHT22;18837;46.832;16.838;2023-08-12T19:07:07;23.50;83.30
32366;DHT22;18837;46.832;16.838;2023-08-12T19:09:33;23.40;83.60
32366;DHT22;18837;46.832;16.838;2023-08-12T19:11:58;23.40;83.70
32366;DHT22;18837;46.832;16.838;2023-08-12T19:14:24;23.40;83.70
32366;DHT22;18837;46.832;16.838;2023-08-12T19:16:50;23.40;83.70
32366;DHT22;18837;46.832;16.838;2023-08-12T19:19:47;23.30;83.70
32366;DHT22;18837;46.832;16.838;2023-08-12T19:22:31;23.30;84.10
32366;DHT22;18837;46.832;16.838;2023-08-12T19:24:57;23.30;84.00
32366;DHT22;18837;46.832;16.838;2023-08-12T19:27:23;23.30;83.90
32366;DHT22;18837;46.832;16.838;2023-08-12T19:29:49;23.30;84.10
32366;DHT22;18837;46.832;16.838;2023-08-12T19:32:15;23.20;83.90
32366;DHT22;18837;46.832;16.838;2023-08-12T19:34:41;23.20;84.00
32366;DHT22;18837;46.832;16.838;2023-08-12T19:37:07;23.20;84.10
32366;DHT22;18837;46.832;16.838;2023-08-12T19:39:33;23.20;84.20
32366;DHT22;18837;46.832;16.838;2023-08-12T19:41:59;23.20;84.00
32366;DHT22;18837;46.832;16.838;2023-08-12T19:44:24;23.20;84.20
32366;DHT22;18837;46.832;16.838;2023-08-12T19:46:50;23.10;84.10
32366;DHT22;18837;46.832;16.838;2023-08-12T19:49:16;23.10;84.40
32366;DHT22;18837;46.832;16.838;2023-08-12T19:51:42;23.10;84.20
32366;DHT22;18837;46.832;16.838;2023-08-12T19:54:08;23.10;84.50
32366;DHT22;18837;46.832;16.838;2023-08-12T19:56:34;23.10;84.30
32366;DHT22;18837;46.832;16.838;2023-08-12T19:59:00;23.10;84.40
32366;DHT22;18837;46.832;16.838;2023-08-12T20:01:25;23.00;84.30
32366;DHT22;18837;46.832;16.838;2023-08-12T20:03:51;23.00;84.30
32366;DHT22;18837;46.832;16.838;2023-08-12T20:06:17;23.00;84.50
32366;DHT22;18837;46.832;16.838;2023-08-12T20:08:43;23.00;84.20
32366;DHT22;18837;46.832;16.838;2023-08-12T20:11:09;23.00;84.50
32366;DHT22;18837;46.832;16.838;2023-08-12T20:13:36;23.00;84.40
32366;DHT22;18837;46.832;16.838;2023-08-12T20:16:01;22.90;84.50
32366;DHT22;18837;46.832;16.838;2023-08-12T20:18:28;22.90;84.40
32366;DHT22;18837;46.832;16.838;2023-08-12T20:20:54;22.90;84.40
32366;DHT22;18837;46.832;16.838;2023-08-12T20:23:26;22.90;84.40
32366;DHT22;18837;46.832;16.838;2023-08-12T20:25:52;22.90;84.50
32366;DHT22;18837;46.832;16.838;2023-08-12T20:28:18;22.90;84.60
32366;DHT22;18837;46.832;16.838;2023-08-12T20:30:44;22.90;84.50
32366;DHT22;18837;46.832;16.838;2023-08-12T20:33:10;22.80;84.40
32366;DHT22;18837;46.832;16.838;2023-08-12T20:35:36;22.80;84.60
32366;DHT22;18837;46.832;16.838;2023-08-12T20:38:20;22.80;84.50
32366;DHT22;18837;46.832;16.838;2023-08-12T20:41:05;22.80;84.60
32366;DHT22;18837;46.832;16.838;2023-08-12T20:43:35;22.80;84.80
32366;DHT22;18837;46.832;16.838;2023-08-12T20:46:01;22.80;84.70
32366;DHT22;18837;46.832;16.838;2023-08-12T20:48:30;22.70;84.70
32366;DHT22;18837;46.832;16.838;2023-08-12T20:50:56;22.70;84.50
32366;DHT22;18837;46.832;16.838;2023-08-12T20:53:21;22.70;84.70
32366;DHT22;18837;46.832;16.838;2023-08-12T20:55:50;22.70;84.60
32366;DHT22;18837;46.832;16.838;2023-08-12T20:58:16;22.70;84.80
32366;DHT22;18837;46.832;16.838;2023-08-12T21:00:42;22.70;84.70
32366;DHT22;18837;46.832;16.838;2023-08-12T21:03:08;22.60;84.80
32366;DHT22;18837;46.832;16.838;2023-08-12T21:05:36;22.60;84.70
32366;DHT22;18837;46.832;16.838;2023-08-12T21:08:06;22.60;84.90
32366;DHT22;18837;46.832;16.838;2023-08-12T21:10:32;22.60;84.70
32366;DHT22;18837;46.832;16.838;2023-08-12T21:13:04;22.60;84.80
32366;DHT22;18837;46.832;16.838;2023-08-12T21:15:29;22.50;84.90
32366;DHT22;18837;46.832;16.838;2023-08-12T21:17:55;22.60;85.10
32366;DHT22;18837;46.832;16.838;2023-08-12T21:20:21;22.50;84.90
32366;DHT22;18837;46.832;16.838;2023-08-12T21:22:47;22.50;85.10
32366;DHT22;18837;46.832;16.838;2023-08-12T21:25:14;22.50;85.10
32366;DHT22;18837;46.832;16.838;2023-08-12T21:28:11;22.50;85.30
32366;DHT22;18837;46.832;16.838;2023-08-12T21:33:53;22.50;85.40
32366;DHT22;18837;46.832;16.838;2023-08-12T21:36:19;22.50;84.90
32366;DHT22;18837;46.832;16.838;2023-08-12T21:38:45;22.40;85.20
32366;DHT22;18837;46.832;16.838;2023-08-12T21:41:11;22.40;85.30
32366;DHT22;18837;46.832;16.838;2023-08-12T21:43:37;22.40;84.80
32366;DHT22;18837;46.832;16.838;2023-08-12T21:46:12;22.40;85.10
32366;DHT22;18837;46.832;16.838;2023-08-12T21:48:37;22.40;85.50
32366;DHT22;18837;46.832;16.838;2023-08-12T21:51:03;22.40;85.40
32366;DHT22;18837;46.832;16.838;2023-08-12T21:53:29;22.30;85.20
32366;DHT22;18837;46.832;16.838;2023-08-12T21:55:55;22.30;85.30
32366;DHT22;18837;46.832;16.838;2023-08-12T21:58:21;22.30;85.00
32366;DHT22;18837;46.832;16.838;2023-08-12T22:00:47;22.30;85.30
32366;DHT22;18837;46.832;16.838;2023-08-12T22:03:32;22.30;85.20
32366;DHT22;18837;46.832;16.838;2023-08-12T22:06:11;22.30;85.70
32366;DHT22;18837;46.832;16.838;2023-08-12T22:08:36;22.20;85.70
32366;DHT22;18837;46.832;16.838;2023-08-12T22:11:02;22.20;85.50
32366;DHT22;18837;46.832;16.838;2023-08-12T22:13:28;22.20;85.40
32366;DHT22;18837;46.832;16.838;2023-08-12T22:15:54;22.20;85.70
32366;DHT22;18837;46.832;16.838;2023-08-12T22:18:19;22.20;85.40
32366;DHT22;18837;46.832;16.838;2023-08-12T22:21:04;22.20;85.60
32366;DHT22;18837;46.832;16.838;2023-08-12T22:23:30;22.20;85.70
32366;DHT22;18837;46.832;16.838;2023-08-12T22:25:55;22.10;85.90
32366;DHT22;18837;46.832;16.838;2023-08-12T22:28:21;22.10;85.70
32366;DHT22;18837;46.832;16.838;2023-08-12T22:30:47;22.10;85.70
32366;DHT22;18837;46.832;16.838;2023-08-12T22:33:13;22.10;85.80
32366;DHT22;18837;46.832;16.838;2023-08-12T22:35:44;22.10;85.80
32366;DHT22;18837;46.832;16.838;2023-08-12T22:38:11;22.00;85.70
32366;DHT22;18837;46.832;16.838;2023-08-12T22:40:43;22.00;86.00
32366;DHT22;18837;46.832;16.838;2023-08-12T22:43:09;22.00;85.70
32366;DHT22;18837;46.832;16.838;2023-08-12T22:45:39;22.00;85.90
32366;DHT22;18837;46.832;16.838;2023-08-12T22:48:08;22.00;86.00
32366;DHT22;18837;46.832;16.838;2023-08-12T22:50:34;22.00;86.20
32366;DHT22;18837;46.832;16.838;2023-08-12T22:53:00;22.00;86.10
32366;DHT22;18837;46.832;16.838;2023-08-12T22:55:31;22.00;86.00
32366;DHT22;18837;46.832;16.838;2023-08-12T22:57:57;21.90;86.20
32366;DHT22;18837;46.832;16.838;2023-08-12T23:00:23;21.90;86.10
32366;DHT22;18837;46.832;16.838;2023-08-12T23:02:49;21.90;86.20
32366;DHT22;18837;46.832;16.838;2023-08-12T23:05:14;21.90;86.90
32366;DHT22;18837;46.832;16.838;2023-08-12T23:07:40;21.90;86.20
32366;DHT22;18837;46.832;16.838;2023-08-12T23:10:27;21.80;86.20
32366;DHT22;18837;46.832;16.838;2023-08-12T23:13:05;21.80;86.40
32366;DHT22;18837;46.832;16.838;2023-08-12T23:15:44;21.80;86.50
32366;DHT22;18837;46.832;16.838;2023-08-12T23:18:10;21.80;86.40
32366;DHT22;18837;46.832;16.838;2023-08-12T23:20:36;21.80;86.90
32366;DHT22;18837;46.832;16.838;2023-08-12T23:23:02;21.80;86.60
32366;DHT22;18837;46.832;16.838;2023-08-12T23:25:28;21.80;86.30
32366;DHT22;18837;46.832;16.838;2023-08-12T23:27:54;21.80;86.40
32366;DHT22;18837;46.832;16.838;2023-08-12T23:30:20;21.70;86.20
32366;DHT22;18837;46.832;16.838;2023-08-12T23:32:46;21.70;86.50
32366;DHT22;18837;46.832;16.838;2023-08-12T23:35:12;21.70;86.60
32366;DHT22;18837;46.832;16.838;2023-08-12T23:37:39;21.70;86.80
32366;DHT22;18837;46.832;16.838;2023-08-12T23:40:06;21.70;86.60
32366;DHT22;18837;46.832;16.838;2023-08-12T23:42:32;21.70;87.00
32366;DHT22;18837;46.832;16.838;2023-08-12T23:45:04;21.70;86.80
32366;DHT22;18837;46.832;16.838;2023-08-12T23:47:39;21.60;86.80
32366;DHT22;18837;46.832;16.838;2023-08-12T23:50:13;21.60;86.60
32366;DHT22;18837;46.832;16.838;2023-08-12T23:52:39;21.60;86.90
32366;DHT22;18837;46.832;16.838;2023-08-12T23:55:05;21.60;87.00
32366;DHT22;18837;46.832;16.838;2023-08-12T23:57:31;21.60;86.80
32366;DHT22;18837;46.832;16.838;2023-08-12T23:59:57;21.60;86.90
